sensor_id;sensor_type;location;lat;lon;timestamp;P1;durP1;ratioP1;P2;durP2;ratioP2
19889;SDS011;10107;51.198;6.824;2023-01-08T00:01:45;1.40;;;1.27;;
19889;SDS011;10107;51.198;6.824;2023-01-08T00:05:49;2.10;;;1.70;;
19889;SDS011;10107;51.198;6.824;2023-01-08T00:09:50;1.80;;;1.60;;
19889;SDS011;10107;51.198;6.824;2023-01-08T00:13:55;1.90;;;1.52;;
19889;SDS011;10107;51.198;6.824;2023-01-08T00:17:57;1.80;;;1.70;;
19889;SDS011;10107;51.198;6.824;2023-01-08T00:21:58;1.67;;;1.45;;
19889;SDS011;10107;51.198;6.824;2023-01-08T00:26:00;1.83;;;1.60;;
19889;SDS011;10107;51.198;6.824;2023-01-08T00:30:04;2.10;;;1.60;;
19889;SDS011;10107;51.198;6.824;2023-01-08T00:34:07;1.70;;;1.52;;
19889;SDS011;10107;51.198;6.824;2023-01-08T00:38:08;2.30;;;1.75;;
19889;SDS011;10107;51.198;6.824;2023-01-08T00:42:10;1.88;;;1.73;;
19889;SDS011;10107;51.198;6.824;2023-01-08T00:46:14;2.28;;;1.75;;
19889;SDS011;10107;51.198;6.824;2023-01-08T00:50:15;1.57;;;1.47;;
19889;SDS011;10107;51.198;6.824;2023-01-08T00:54:17;2.08;;;1.80;;
19889;SDS011;10107;51.198;6.824;2023-01-08T00:58:19;2.08;;;1.85;;
19889;SDS011;10107;51.198;6.824;2023-01-08T01:02:22;2.17;;;1.92;;
19889;SDS011;10107;51.198;6.824;2023-01-08T01:06:24;2.08;;;1.88;;
19889;SDS011;10107;51.198;6.824;2023-01-08T01:10:26;2.45;;;2.25;;
19889;SDS011;10107;51.198;6.824;2023-01-08T01:14:27;2.83;;;1.92;;
19889;SDS011;10107;51.198;6.824;2023-01-08T01:18:33;3.47;;;1.92;;
19889;SDS011;10107;51.198;6.824;2023-01-08T01:22:35;2.30;;;1.75;;
19889;SDS011;10107;51.198;6.824;2023-01-08T01:26:38;4.18;;;1.88;;
19889;SDS011;10107;51.198;6.824;2023-01-08T01:30:39;2.17;;;1.77;;
19889;SDS011;10107;51.198;6.824;2023-01-08T01:34:42;2.00;;;1.80;;
19889;SDS011;10107;51.198;6.824;2023-01-08T01:38:44;1.63;;;1.47;;
19889;SDS011;10107;51.198;6.824;2023-01-08T01:42:46;2.28;;;1.85;;
19889;SDS011;10107;51.198;6.824;2023-01-08T01:46:48;2.90;;;2.08;;
19889;SDS011;10107;51.198;6.824;2023-01-08T01:50:51;3.47;;;2.05;;
19889;SDS011;10107;51.198;6.824;2023-01-08T01:54:54;2.80;;;2.20;;
19889;SDS011;10107;51.198;6.824;2023-01-08T01:58:58;3.75;;;2.05;;
19889;SDS011;10107;51.198;6.824;2023-01-08T02:03:00;3.72;;;2.13;;
19889;SDS011;10107;51.198;6.824;2023-01-08T02:07:07;3.70;;;2.20;;
19889;SDS011;10107;51.198;6.824;2023-01-08T02:11:18;3.15;;;2.33;;
19889;SDS011;10107;51.198;6.824;2023-01-08T02:15:30;3.55;;;2.30;;
19889;SDS011;10107;51.198;6.824;2023-01-08T02:19:40;3.83;;;2.55;;
19889;SDS011;10107;51.198;6.824;2023-01-08T02:23:48;3.13;;;2.17;;
19889;SDS011;10107;51.198;6.824;2023-01-08T02:28:01;2.28;;;1.77;;
19889;SDS011;10107;51.198;6.824;2023-01-08T02:32:08;4.32;;;2.58;;
19889;SDS011;10107;51.198;6.824;2023-01-08T02:36:15;5.30;;;2.42;;
19889;SDS011;10107;51.198;6.824;2023-01-08T02:44:35;2.40;;;2.10;;
19889;SDS011;10107;51.198;6.824;2023-01-08T02:48:46;4.65;;;2.55;;
19889;SDS011;10107;51.198;6.824;2023-01-08T02:52:54;3.67;;;2.30;;
19889;SDS011;10107;51.198;6.824;2023-01-08T02:57:01;3.58;;;2.50;;
19889;SDS011;10107;51.198;6.824;2023-01-08T03:01:08;2.90;;;2.40;;
19889;SDS011;10107;51.198;6.824;2023-01-08T03:05:14;3.85;;;2.70;;
19889;SDS011;10107;51.198;6.824;2023-01-08T03:09:23;4.38;;;2.58;;
19889;SDS011;10107;51.198;6.824;2023-01-08T03:13:27;4.15;;;2.78;;
19889;SDS011;10107;51.198;6.824;2023-01-08T03:17:37;4.80;;;2.72;;
19889;SDS011;10107;51.198;6.824;2023-01-08T03:21:43;5.03;;;2.78;;
19889;SDS011;10107;51.198;6.824;2023-01-08T03:25:46;3.63;;;2.60;;
19889;SDS011;10107;51.198;6.824;2023-01-08T03:29:49;4.00;;;2.78;;
19889;SDS011;10107;51.198;6.824;2023-01-08T03:33:55;4.15;;;3.00;;
19889;SDS011;10107;51.198;6.824;2023-01-08T03:38:02;4.28;;;2.80;;
19889;SDS011;10107;51.198;6.824;2023-01-08T03:42:08;4.53;;;2.70;;
19889;SDS011;10107;51.198;6.824;2023-01-08T03:46:15;3.92;;;2.70;;
19889;SDS011;10107;51.198;6.824;2023-01-08T03:50:24;3.65;;;2.80;;
19889;SDS011;10107;51.198;6.824;2023-01-08T03:54:28;3.47;;;2.80;;
19889;SDS011;10107;51.198;6.824;2023-01-08T03:58:32;5.82;;;3.20;;
19889;SDS011;10107;51.198;6.824;2023-01-08T04:02:33;3.17;;;2.42;;
19889;SDS011;10107;51.198;6.824;2023-01-08T04:06:37;2.88;;;2.38;;
19889;SDS011;10107;51.198;6.824;2023-01-08T04:10:38;2.85;;;2.25;;
19889;SDS011;10107;51.198;6.824;2023-01-08T04:14:40;5.53;;;2.80;;
19889;SDS011;10107;51.198;6.824;2023-01-08T04:18:42;4.28;;;2.30;;
19889;SDS011;10107;51.198;6.824;2023-01-08T04:22:45;4.47;;;2.30;;
19889;SDS011;10107;51.198;6.824;2023-01-08T04:26:47;3.78;;;2.58;;
19889;SDS011;10107;51.198;6.824;2023-01-08T04:30:49;2.60;;;2.10;;
19889;SDS011;10107;51.198;6.824;2023-01-08T04:34:51;3.08;;;2.33;;
19889;SDS011;10107;51.198;6.824;2023-01-08T04:38:54;4.28;;;2.55;;
19889;SDS011;10107;51.198;6.824;2023-01-08T04:42:56;3.70;;;2.17;;
19889;SDS011;10107;51.198;6.824;2023-01-08T04:46:57;2.88;;;2.20;;
19889;SDS011;10107;51.198;6.824;2023-01-08T04:50:59;2.63;;;2.00;;
19889;SDS011;10107;51.198;6.824;2023-01-08T04:55:04;3.22;;;2.03;;
19889;SDS011;10107;51.198;6.824;2023-01-08T05:03:08;2.00;;;1.80;;
19889;SDS011;10107;51.198;6.824;2023-01-08T05:07:10;1.92;;;1.70;;
19889;SDS011;10107;51.198;6.824;2023-01-08T05:11:13;2.83;;;1.90;;
19889;SDS011;10107;51.198;6.824;2023-01-08T05:15:15;1.98;;;1.70;;
19889;SDS011;10107;51.198;6.824;2023-01-08T05:19:16;2.40;;;1.88;;
19889;SDS011;10107;51.198;6.824;2023-01-08T05:23:18;1.63;;;1.40;;
19889;SDS011;10107;51.198;6.824;2023-01-08T05:27:22;3.30;;;1.58;;
19889;SDS011;10107;51.198;6.824;2023-01-08T05:31:24;2.00;;;1.60;;
19889;SDS011;10107;51.198;6.824;2023-01-08T05:35:26;1.30;;;1.10;;
19889;SDS011;10107;51.198;6.824;2023-01-08T05:39:28;1.60;;;1.33;;
19889;SDS011;10107;51.198;6.824;2023-01-08T05:43:31;1.20;;;1.10;;
19889;SDS011;10107;51.198;6.824;2023-01-08T05:47:33;2.63;;;1.45;;
19889;SDS011;10107;51.198;6.824;2023-01-08T05:51:35;1.33;;;1.20;;
19889;SDS011;10107;51.198;6.824;2023-01-08T05:55:37;1.65;;;1.20;;
19889;SDS011;10107;51.198;6.824;2023-01-08T05:59:40;1.20;;;1.10;;
19889;SDS011;10107;51.198;6.824;2023-01-08T06:03:41;1.00;;;0.90;;
19889;SDS011;10107;51.198;6.824;2023-01-08T06:07:43;1.23;;;1.02;;
19889;SDS011;10107;51.198;6.824;2023-01-08T06:11:45;1.60;;;1.20;;
19889;SDS011;10107;51.198;6.824;2023-01-08T06:15:48;0.70;;;0.70;;
19889;SDS011;10107;51.198;6.824;2023-01-08T06:19:49;0.57;;;0.57;;
19889;SDS011;10107;51.198;6.824;2023-01-08T06:23:51;1.27;;;1.00;;
19889;SDS011;10107;51.198;6.824;2023-01-08T06:27:53;0.95;;;0.65;;
19889;SDS011;10107;51.198;6.824;2023-01-08T06:31:56;1.10;;;0.80;;
19889;SDS011;10107;51.198;6.824;2023-01-08T06:35:58;1.00;;;0.70;;
19889;SDS011;10107;51.198;6.824;2023-01-08T06:40:01;2.38;;;1.00;;
19889;SDS011;10107;51.198;6.824;2023-01-08T06:44:03;0.47;;;0.40;;
19889;SDS011;10107;51.198;6.824;2023-01-08T06:48:06;1.65;;;0.75;;
19889;SDS011;10107;51.198;6.824;2023-01-08T06:52:08;1.65;;;0.60;;
19889;SDS011;10107;51.198;6.824;2023-01-08T06:56:09;2.22;;;0.70;;
19889;SDS011;10107;51.198;6.824;2023-01-08T07:00:11;2.25;;;1.00;;
19889;SDS011;10107;51.198;6.824;2023-01-08T07:04:15;2.25;;;0.75;;
19889;SDS011;10107;51.198;6.824;2023-01-08T07:08:17;1.70;;;0.60;;
19889;SDS011;10107;51.198;6.824;2023-01-08T07:12:19;1.73;;;0.60;;
19889;SDS011;10107;51.198;6.824;2023-01-08T07:16:21;2.25;;;0.65;;
19889;SDS011;10107;51.198;6.824;2023-01-08T07:20:24;2.90;;;0.60;;
19889;SDS011;10107;51.198;6.824;2023-01-08T07:24:25;1.00;;;0.70;;
19889;SDS011;10107;51.198;6.824;2023-01-08T07:28:27;1.77;;;0.70;;
19889;SDS011;10107;51.198;6.824;2023-01-08T07:32:29;2.53;;;1.30;;
19889;SDS011;10107;51.198;6.824;2023-01-08T07:36:32;2.10;;;1.10;;
19889;SDS011;10107;51.198;6.824;2023-01-08T07:40:34;3.60;;;1.05;;
19889;SDS011;10107;51.198;6.824;2023-01-08T07:44:35;1.50;;;0.75;;
19889;SDS011;10107;51.198;6.824;2023-01-08T07:48:37;1.85;;;0.82;;
19889;SDS011;10107;51.198;6.824;2023-01-08T07:52:40;1.67;;;0.57;;
19889;SDS011;10107;51.198;6.824;2023-01-08T07:56:42;1.73;;;0.80;;
19889;SDS011;10107;51.198;6.824;2023-01-08T08:00:44;2.40;;;0.77;;
19889;SDS011;10107;51.198;6.824;2023-01-08T08:04:45;4.20;;;0.75;;
19889;SDS011;10107;51.198;6.824;2023-01-08T08:08:48;2.50;;;0.70;;
19889;SDS011;10107;51.198;6.824;2023-01-08T08:12:50;1.40;;;0.60;;
19889;SDS011;10107;51.198;6.824;2023-01-08T08:16:52;2.05;;;0.77;;
19889;SDS011;10107;51.198;6.824;2023-01-08T08:20:53;1.67;;;0.75;;
19889;SDS011;10107;51.198;6.824;2023-01-08T08:24:56;2.38;;;0.90;;
19889;SDS011;10107;51.198;6.824;2023-01-08T08:28:58;2.70;;;1.27;;
19889;SDS011;10107;51.198;6.824;2023-01-08T08:33:01;4.40;;;0.93;;
19889;SDS011;10107;51.198;6.824;2023-01-08T08:37:04;1.95;;;0.90;;
19889;SDS011;10107;51.198;6.824;2023-01-08T08:41:07;2.03;;;0.90;;
19889;SDS011;10107;51.198;6.824;2023-01-08T08:45:09;4.47;;;1.10;;
19889;SDS011;10107;51.198;6.824;2023-01-08T08:49:11;2.88;;;1.50;;
19889;SDS011;10107;51.198;6.824;2023-01-08T08:53:12;3.95;;;1.20;;
19889;SDS011;10107;51.198;6.824;2023-01-08T08:57:15;3.83;;;1.10;;
19889;SDS011;10107;51.198;6.824;2023-01-08T09:01:17;9.07;;;1.57;;
19889;SDS011;10107;51.198;6.824;2023-01-08T09:05:19;2.53;;;1.15;;
19889;SDS011;10107;51.198;6.824;2023-01-08T09:09:20;5.13;;;1.10;;
19889;SDS011;10107;51.198;6.824;2023-01-08T09:13:23;3.17;;;1.20;;
19889;SDS011;10107;51.198;6.824;2023-01-08T09:17:25;3.20;;;1.30;;
19889;SDS011;10107;51.198;6.824;2023-01-08T09:21:27;2.47;;;1.10;;
19889;SDS011;10107;51.198;6.824;2023-01-08T09:25:28;3.65;;;1.13;;
19889;SDS011;10107;51.198;6.824;2023-01-08T09:29:32;6.00;;;1.15;;
19889;SDS011;10107;51.198;6.824;2023-01-08T09:33:33;3.20;;;1.07;;
19889;SDS011;10107;51.198;6.824;2023-01-08T09:37:35;4.20;;;1.10;;
19889;SDS011;10107;51.198;6.824;2023-01-08T09:41:38;4.15;;;1.40;;
19889;SDS011;10107;51.198;6.824;2023-01-08T09:45:47;3.03;;;1.25;;
19889;SDS011;10107;51.198;6.824;2023-01-08T09:49:53;4.10;;;1.35;;
19889;SDS011;10107;51.198;6.824;2023-01-08T09:53:58;4.32;;;1.42;;
19889;SDS011;10107;51.198;6.824;2023-01-08T09:58:00;3.17;;;1.08;;
19889;SDS011;10107;51.198;6.824;2023-01-08T10:02:08;3.90;;;1.35;;
19889;SDS011;10107;51.198;6.824;2023-01-08T10:06:13;2.70;;;1.30;;
19889;SDS011;10107;51.198;6.824;2023-01-08T10:10:18;2.47;;;0.90;;
19889;SDS011;10107;51.198;6.824;2023-01-08T10:14:22;2.17;;;1.10;;
19889;SDS011;10107;51.198;6.824;2023-01-08T10:18:27;4.25;;;1.10;;
19889;SDS011;10107;51.198;6.824;2023-01-08T10:22:30;3.42;;;1.00;;
19889;SDS011;10107;51.198;6.824;2023-01-08T10:26:34;2.20;;;0.90;;
19889;SDS011;10107;51.198;6.824;2023-01-08T10:30:37;3.20;;;1.08;;
19889;SDS011;10107;51.198;6.824;2023-01-08T10:34:42;2.28;;;0.90;;
19889;SDS011;10107;51.198;6.824;2023-01-08T10:38:47;2.05;;;1.10;;
19889;SDS011;10107;51.198;6.824;2023-01-08T10:42:51;2.25;;;0.98;;
19889;SDS011;10107;51.198;6.824;2023-01-08T10:46:56;2.45;;;1.10;;
19889;SDS011;10107;51.198;6.824;2023-01-08T10:51:05;3.35;;;1.10;;
19889;SDS011;10107;51.198;6.824;2023-01-08T10:55:21;3.70;;;1.23;;
19889;SDS011;10107;51.198;6.824;2023-01-08T10:59:28;1.55;;;0.93;;
19889;SDS011;10107;51.198;6.824;2023-01-08T11:03:31;2.15;;;0.98;;
19889;SDS011;10107;51.198;6.824;2023-01-08T11:07:34;1.83;;;1.00;;
19889;SDS011;10107;51.198;6.824;2023-01-08T11:11:36;3.40;;;1.30;;
19889;SDS011;10107;51.198;6.824;2023-01-08T11:15:39;2.38;;;1.10;;
19889;SDS011;10107;51.198;6.824;2023-01-08T11:19:43;2.13;;;0.80;;
19889;SDS011;10107;51.198;6.824;2023-01-08T11:23:46;2.15;;;1.20;;
19889;SDS011;10107;51.198;6.824;2023-01-08T11:32:07;2.00;;;0.85;;
19889;SDS011;10107;51.198;6.824;2023-01-08T11:36:18;1.52;;;0.93;;
19889;SDS011;10107;51.198;6.824;2023-01-08T11:40:28;3.20;;;1.15;;
19889;SDS011;10107;51.198;6.824;2023-01-08T11:44:41;1.47;;;0.93;;
19889;SDS011;10107;51.198;6.824;2023-01-08T11:48:53;2.42;;;1.50;;
19889;SDS011;10107;51.198;6.824;2023-01-08T11:53:12;2.55;;;1.13;;
19889;SDS011;10107;51.198;6.824;2023-01-08T11:57:23;2.30;;;0.93;;
19889;SDS011;10107;51.198;6.824;2023-01-08T12:01:38;1.27;;;0.90;;
19889;SDS011;10107;51.198;6.824;2023-01-08T12:05:49;1.65;;;0.90;;
19889;SDS011;10107;51.198;6.824;2023-01-08T12:10:00;2.17;;;1.00;;
19889;SDS011;10107;51.198;6.824;2023-01-08T12:14:17;5.82;;;3.58;;
19889;SDS011;10107;51.198;6.824;2023-01-08T12:18:32;5.25;;;3.63;;
19889;SDS011;10107;51.198;6.824;2023-01-08T12:22:41;2.80;;;1.90;;
19889;SDS011;10107;51.198;6.824;2023-01-08T12:26:48;2.55;;;1.90;;
19889;SDS011;10107;51.198;6.824;2023-01-08T12:31:07;3.70;;;2.20;;
19889;SDS011;10107;51.198;6.824;2023-01-08T12:35:21;5.32;;;4.22;;
19889;SDS011;10107;51.198;6.824;2023-01-08T12:39:26;2.85;;;1.58;;
19889;SDS011;10107;51.198;6.824;2023-01-08T12:43:34;2.28;;;1.38;;
19889;SDS011;10107;51.198;6.824;2023-01-08T12:47:45;1.60;;;0.70;;
19889;SDS011;10107;51.198;6.824;2023-01-08T12:51:53;0.85;;;0.52;;
19889;SDS011;10107;51.198;6.824;2023-01-08T12:56:03;0.68;;;0.55;;
19889;SDS011;10107;51.198;6.824;2023-01-08T13:00:15;1.65;;;0.60;;
19889;SDS011;10107;51.198;6.824;2023-01-08T13:04:21;0.80;;;0.43;;
19889;SDS011;10107;51.198;6.824;2023-01-08T13:08:25;2.08;;;0.60;;
19889;SDS011;10107;51.198;6.824;2023-01-08T13:12:32;1.10;;;0.60;;
19889;SDS011;10107;51.198;6.824;2023-01-08T13:20:40;3.28;;;2.25;;
19889;SDS011;10107;51.198;6.824;2023-01-08T13:24:42;1.40;;;0.70;;
19889;SDS011;10107;51.198;6.824;2023-01-08T13:28:44;2.95;;;0.68;;
19889;SDS011;10107;51.198;6.824;2023-01-08T13:32:46;1.55;;;0.60;;
19889;SDS011;10107;51.198;6.824;2023-01-08T13:36:56;1.00;;;0.70;;
19889;SDS011;10107;51.198;6.824;2023-01-08T13:40:59;1.80;;;0.70;;
19889;SDS011;10107;51.198;6.824;2023-01-08T13:45:01;1.45;;;0.75;;
19889;SDS011;10107;51.198;6.824;2023-01-08T13:49:05;0.57;;;0.57;;
19889;SDS011;10107;51.198;6.824;2023-01-08T13:53:11;1.80;;;0.65;;
19889;SDS011;10107;51.198;6.824;2023-01-08T13:57:14;0.90;;;0.60;;
19889;SDS011;10107;51.198;6.824;2023-01-08T14:01:19;2.70;;;0.90;;
19889;SDS011;10107;51.198;6.824;2023-01-08T14:05:24;1.45;;;0.73;;
19889;SDS011;10107;51.198;6.824;2023-01-08T14:09:28;1.10;;;0.75;;
19889;SDS011;10107;51.198;6.824;2023-01-08T14:13:30;1.23;;;0.80;;
19889;SDS011;10107;51.198;6.824;2023-01-08T14:17:34;1.65;;;1.10;;
19889;SDS011;10107;51.198;6.824;2023-01-08T14:21:37;1.63;;;0.90;;
19889;SDS011;10107;51.198;6.824;2023-01-08T14:25:40;2.00;;;1.13;;
19889;SDS011;10107;51.198;6.824;2023-01-08T14:29:43;1.35;;;1.00;;
19889;SDS011;10107;51.198;6.824;2023-01-08T14:33:45;2.03;;;0.88;;
19889;SDS011;10107;51.198;6.824;2023-01-08T14:37:49;1.30;;;1.00;;
19889;SDS011;10107;51.198;6.824;2023-01-08T14:41:52;1.23;;;0.60;;
19889;SDS011;10107;51.198;6.824;2023-01-08T14:46:14;1.40;;;0.70;;
19889;SDS011;10107;51.198;6.824;2023-01-08T14:50:22;0.98;;;0.70;;
19889;SDS011;10107;51.198;6.824;2023-01-08T14:54:26;1.23;;;0.95;;
19889;SDS011;10107;51.198;6.824;2023-01-08T14:58:35;1.73;;;0.68;;
19889;SDS011;10107;51.198;6.824;2023-01-08T15:02:39;1.95;;;0.90;;
19889;SDS011;10107;51.198;6.824;2023-01-08T15:06:41;2.22;;;0.88;;
19889;SDS011;10107;51.198;6.824;2023-01-08T15:10:43;3.75;;;0.80;;
19889;SDS011;10107;51.198;6.824;2023-01-08T15:14:46;1.33;;;0.82;;
19889;SDS011;10107;51.198;6.824;2023-01-08T15:18:53;1.13;;;0.68;;
19889;SDS011;10107;51.198;6.824;2023-01-08T15:23:00;0.90;;;0.68;;
19889;SDS011;10107;51.198;6.824;2023-01-08T15:27:02;1.70;;;0.70;;
19889;SDS011;10107;51.198;6.824;2023-01-08T15:31:10;1.33;;;0.70;;
19889;SDS011;10107;51.198;6.824;2023-01-08T15:35:12;2.70;;;0.73;;
19889;SDS011;10107;51.198;6.824;2023-01-08T15:39:15;2.33;;;0.80;;
19889;SDS011;10107;51.198;6.824;2023-01-08T15:43:17;1.08;;;0.70;;
19889;SDS011;10107;51.198;6.824;2023-01-08T15:47:20;2.10;;;0.70;;
19889;SDS011;10107;51.198;6.824;2023-01-08T15:51:22;0.87;;;0.77;;
19889;SDS011;10107;51.198;6.824;2023-01-08T15:55:24;0.85;;;0.60;;
19889;SDS011;10107;51.198;6.824;2023-01-08T15:59:26;2.47;;;1.00;;
19889;SDS011;10107;51.198;6.824;2023-01-08T16:03:29;2.17;;;0.80;;
19889;SDS011;10107;51.198;6.824;2023-01-08T16:07:30;1.00;;;0.73;;
19889;SDS011;10107;51.198;6.824;2023-01-08T16:11:32;1.52;;;0.70;;
19889;SDS011;10107;51.198;6.824;2023-01-08T16:15:34;1.77;;;0.90;;
19889;SDS011;10107;51.198;6.824;2023-01-08T16:19:37;2.42;;;0.95;;
19889;SDS011;10107;51.198;6.824;2023-01-08T16:23:39;2.33;;;0.80;;
19889;SDS011;10107;51.198;6.824;2023-01-08T16:27:41;2.05;;;0.90;;
19889;SDS011;10107;51.198;6.824;2023-01-08T16:31:43;1.60;;;0.80;;
19889;SDS011;10107;51.198;6.824;2023-01-08T16:35:55;0.70;;;0.70;;
19889;SDS011;10107;51.198;6.824;2023-01-08T16:39:57;2.00;;;1.10;;
19889;SDS011;10107;51.198;6.824;2023-01-08T16:43:58;1.67;;;1.00;;
19889;SDS011;10107;51.198;6.824;2023-01-08T16:48:00;1.83;;;0.85;;
19889;SDS011;10107;51.198;6.824;2023-01-08T16:52:03;1.90;;;0.70;;
19889;SDS011;10107;51.198;6.824;2023-01-08T16:56:06;1.33;;;0.73;;
19889;SDS011;10107;51.198;6.824;2023-01-08T17:00:08;2.92;;;1.30;;
19889;SDS011;10107;51.198;6.824;2023-01-08T17:04:11;0.63;;;0.60;;
19889;SDS011;10107;51.198;6.824;2023-01-08T17:08:14;1.67;;;0.80;;
19889;SDS011;10107;51.198;6.824;2023-01-08T17:12:18;2.35;;;0.80;;
19889;SDS011;10107;51.198;6.824;2023-01-08T17:16:22;2.38;;;1.13;;
19889;SDS011;10107;51.198;6.824;2023-01-08T17:20:24;1.77;;;0.90;;
19889;SDS011;10107;51.198;6.824;2023-01-08T17:24:27;2.28;;;0.82;;
19889;SDS011;10107;51.198;6.824;2023-01-08T17:28:29;1.57;;;1.00;;
19889;SDS011;10107;51.198;6.824;2023-01-08T17:32:31;1.80;;;0.73;;
19889;SDS011;10107;51.198;6.824;2023-01-08T17:36:32;1.63;;;0.82;;
19889;SDS011;10107;51.198;6.824;2023-01-08T17:40:36;2.00;;;1.00;;
19889;SDS011;10107;51.198;6.824;2023-01-08T17:44:38;1.65;;;0.77;;
19889;SDS011;10107;51.198;6.824;2023-01-08T17:48:43;1.90;;;1.00;;
19889;SDS011;10107;51.198;6.824;2023-01-08T17:52:45;2.20;;;1.40;;
19889;SDS011;10107;51.198;6.824;2023-01-08T17:56:48;2.05;;;0.90;;
19889;SDS011;10107;51.198;6.824;2023-01-08T18:00:52;2.15;;;1.20;;
19889;SDS011;10107;51.198;6.824;2023-01-08T18:04:54;1.25;;;1.10;;
19889;SDS011;10107;51.198;6.824;2023-01-08T18:08:55;2.60;;;1.20;;
19889;SDS011;10107;51.198;6.824;2023-01-08T18:12:58;3.03;;;1.60;;
19889;SDS011;10107;51.198;6.824;2023-01-08T18:17:00;3.67;;;1.60;;
19889;SDS011;10107;51.198;6.824;2023-01-08T18:21:02;3.60;;;1.70;;
19889;SDS011;10107;51.198;6.824;2023-01-08T18:25:05;2.78;;;1.58;;
19889;SDS011;10107;51.198;6.824;2023-01-08T18:29:08;3.92;;;1.55;;
19889;SDS011;10107;51.198;6.824;2023-01-08T18:33:10;3.03;;;1.50;;
19889;SDS011;10107;51.198;6.824;2023-01-08T18:37:11;4.55;;;1.60;;
19889;SDS011;10107;51.198;6.824;2023-01-08T18:41:15;3.40;;;1.60;;
19889;SDS011;10107;51.198;6.824;2023-01-08T18:45:33;3.05;;;1.45;;
19889;SDS011;10107;51.198;6.824;2023-01-08T18:49:37;2.25;;;1.45;;
19889;SDS011;10107;51.198;6.824;2023-01-08T18:53:39;3.08;;;1.30;;
19889;SDS011;10107;51.198;6.824;2023-01-08T18:57:40;1.77;;;1.08;;
19889;SDS011;10107;51.198;6.824;2023-01-08T19:01:45;6.00;;;1.67;;
19889;SDS011;10107;51.198;6.824;2023-01-08T19:05:47;3.50;;;1.33;;
19889;SDS011;10107;51.198;6.824;2023-01-08T19:09:48;2.05;;;1.20;;
19889;SDS011;10107;51.198;6.824;2023-01-08T19:13:52;3.22;;;1.23;;
19889;SDS011;10107;51.198;6.824;2023-01-08T19:17:56;2.53;;;1.30;;
19889;SDS011;10107;51.198;6.824;2023-01-08T19:21:59;4.78;;;1.60;;
19889;SDS011;10107;51.198;6.824;2023-01-08T19:26:03;4.07;;;1.67;;
19889;SDS011;10107;51.198;6.824;2023-01-08T19:30:06;3.40;;;1.70;;
19889;SDS011;10107;51.198;6.824;2023-01-08T19:34:11;1.90;;;1.20;;
19889;SDS011;10107;51.198;6.824;2023-01-08T19:38:13;4.57;;;1.92;;
19889;SDS011;10107;51.198;6.824;2023-01-08T19:42:15;4.57;;;2.15;;
19889;SDS011;10107;51.198;6.824;2023-01-08T19:46:34;3.00;;;1.60;;
19889;SDS011;10107;51.198;6.824;2023-01-08T19:50:39;2.90;;;1.40;;
19889;SDS011;10107;51.198;6.824;2023-01-08T19:54:41;5.75;;;2.20;;
19889;SDS011;10107;51.198;6.824;2023-01-08T19:58:43;5.47;;;2.13;;
19889;SDS011;10107;51.198;6.824;2023-01-08T20:02:45;3.80;;;2.05;;
19889;SDS011;10107;51.198;6.824;2023-01-08T20:06:49;3.38;;;1.98;;
19889;SDS011;10107;51.198;6.824;2023-01-08T20:10:51;4.85;;;2.03;;
19889;SDS011;10107;51.198;6.824;2023-01-08T20:14:53;7.00;;;2.33;;
19889;SDS011;10107;51.198;6.824;2023-01-08T20:18:55;6.70;;;2.42;;
19889;SDS011;10107;51.198;6.824;2023-01-08T20:22:59;3.58;;;2.10;;
19889;SDS011;10107;51.198;6.824;2023-01-08T20:27:01;9.48;;;2.50;;
19889;SDS011;10107;51.198;6.824;2023-01-08T20:31:04;4.53;;;2.33;;
19889;SDS011;10107;51.198;6.824;2023-01-08T20:35:07;7.03;;;2.33;;
19889;SDS011;10107;51.198;6.824;2023-01-08T20:39:12;3.35;;;2.15;;
19889;SDS011;10107;51.198;6.824;2023-01-08T20:43:15;3.90;;;1.90;;
19889;SDS011;10107;51.198;6.824;2023-01-08T20:47:17;5.57;;;2.15;;
19889;SDS011;10107;51.198;6.824;2023-01-08T20:51:18;6.15;;;2.40;;
19889;SDS011;10107;51.198;6.824;2023-01-08T20:55:21;4.35;;;2.25;;
19889;SDS011;10107;51.198;6.824;2023-01-08T20:59:23;3.00;;;1.57;;
19889;SDS011;10107;51.198;6.824;2023-01-08T21:03:26;3.53;;;1.85;;
19889;SDS011;10107;51.198;6.824;2023-01-08T21:07:27;5.00;;;2.38;;
19889;SDS011;10107;51.198;6.824;2023-01-08T21:11:31;2.83;;;1.77;;
19889;SDS011;10107;51.198;6.824;2023-01-08T21:15:34;3.05;;;1.75;;
19889;SDS011;10107;51.198;6.824;2023-01-08T21:19:36;3.08;;;1.92;;
19889;SDS011;10107;51.198;6.824;2023-01-08T21:23:38;3.63;;;1.50;;
19889;SDS011;10107;51.198;6.824;2023-01-08T21:27:42;2.83;;;1.70;;
19889;SDS011;10107;51.198;6.824;2023-01-08T21:31:44;2.60;;;1.30;;
19889;SDS011;10107;51.198;6.824;2023-01-08T21:35:46;3.10;;;1.90;;
19889;SDS011;10107;51.198;6.824;2023-01-08T21:39:48;2.95;;;1.48;;
19889;SDS011;10107;51.198;6.824;2023-01-08T21:43:52;3.58;;;1.55;;
19889;SDS011;10107;51.198;6.824;2023-01-08T21:48:11;3.30;;;1.45;;
19889;SDS011;10107;51.198;6.824;2023-01-08T21:52:13;4.25;;;1.42;;
19889;SDS011;10107;51.198;6.824;2023-01-08T21:56:33;4.32;;;1.60;;
19889;SDS011;10107;51.198;6.824;2023-01-08T22:00:36;3.13;;;1.30;;
19889;SDS011;10107;51.198;6.824;2023-01-08T22:04:38;3.20;;;1.73;;
19889;SDS011;10107;51.198;6.824;2023-01-08T22:08:40;2.63;;;1.35;;
19889;SDS011;10107;51.198;6.824;2023-01-08T22:12:42;3.63;;;1.90;;
19889;SDS011;10107;51.198;6.824;2023-01-08T22:16:45;3.72;;;1.50;;
19889;SDS011;10107;51.198;6.824;2023-01-08T22:20:46;4.10;;;1.50;;
19889;SDS011;10107;51.198;6.824;2023-01-08T22:24:49;4.05;;;1.60;;
19889;SDS011;10107;51.198;6.824;2023-01-08T22:28:51;3.95;;;1.35;;
19889;SDS011;10107;51.198;6.824;2023-01-08T22:32:54;3.25;;;1.40;;
19889;SDS011;10107;51.198;6.824;2023-01-08T22:36:55;5.18;;;1.70;;
19889;SDS011;10107;51.198;6.824;2023-01-08T22:40:57;3.83;;;1.70;;
19889;SDS011;10107;51.198;6.824;2023-01-08T22:45:03;4.03;;;1.70;;
19889;SDS011;10107;51.198;6.824;2023-01-08T22:49:09;3.10;;;2.03;;
19889;SDS011;10107;51.198;6.824;2023-01-08T22:53:12;4.00;;;1.90;;
19889;SDS011;10107;51.198;6.824;2023-01-08T22:57:14;4.43;;;1.95;;
19889;SDS011;10107;51.198;6.824;2023-01-08T23:01:17;4.85;;;2.20;;
19889;SDS011;10107;51.198;6.824;2023-01-08T23:05:22;3.08;;;1.80;;
19889;SDS011;10107;51.198;6.824;2023-01-08T23:09:23;4.07;;;2.27;;
19889;SDS011;10107;51.198;6.824;2023-01-08T23:13:26;3.58;;;2.25;;
19889;SDS011;10107;51.198;6.824;2023-01-08T23:17:27;2.72;;;1.98;;
19889;SDS011;10107;51.198;6.824;2023-01-08T23:21:30;3.42;;;2.00;;
19889;SDS011;10107;51.198;6.824;2023-01-08T23:25:32;2.83;;;1.53;;
19889;SDS011;10107;51.198;6.824;2023-01-08T23:29:38;2.72;;;1.80;;
19889;SDS011;10107;51.198;6.824;2023-01-08T23:34:03;2.22;;;1.92;;
19889;SDS011;10107;51.198;6.824;2023-01-08T23:38:07;3.88;;;2.17;;
19889;SDS011;10107;51.198;6.824;2023-01-08T23:42:09;3.37;;;2.00;;
19889;SDS011;10107;51.198;6.824;2023-01-08T23:46:11;2.58;;;1.90;;
19889;SDS011;10107;51.198;6.824;2023-01-08T23:50:13;1.73;;;1.17;;
19889;SDS011;10107;51.198;6.824;2023-01-08T23:54:17;0.90;;;0.80;;
19889;SDS011;10107;51.198;6.824;2023-01-08T23:58:19;0.82;;;0.80;;
